Flight Track Log - Related Links

Times and Time Zones

All times are in EDT time to prevent confusion due to time zone crossing. See the AAL1975 flight status page for this flight to view local times or setup timezone preferences in your user account.

Time Position Orientation Groundspeed Altitude Reporting Facility
EDT Latitude Longitude Course Direction KTS MPH feet Rate Location/Type
Tue 10:51:03 AM 35.8664 -78.8139 253° West 164 189 1,100  Level Washington Center
Tue 10:51:52 AM 35.8361 -78.8536 227° Southwest 182 209 2,500 1,527 Climbing Washington Center
Tue 10:52:53 AM 35.8342 -78.9253 268° West 234 269 3,900 1,688 Climbing Washington Center
Tue 10:53:00 AM 35.8413 -79.1879 264° West  Level FlightAware Approximate
Tue 10:54:00 AM 35.8308 -79.3230 262° West  Level FlightAware Approximate
Tue 10:54:00 AM 35.8378 -79.0203 273° West 261 300 6,100  Level Washington Center
Tue 10:54:54 AM 35.8378 -79.0944 270° West 262 302 8,000 2,368 Climbing Washington Center
Tue 10:55:00 AM 35.8167 -79.4576 270° West  Level FlightAware Approximate
Tue 10:55:54 AM 35.8389 -79.1969 271° West 294 338 10,600  Level Washington Center
Tue 10:56:00 AM 35.8023 -79.5908 253° West  Level FlightAware Approximate
Tue 10:56:55 AM 35.8361 -79.2917 268° West 311 358 11,600  Level Washington Center
Tue 10:58:48 AM 35.8172 -79.5392 265° West 354 407 16,200 2,289 Climbing Atlanta Center
Tue 10:59:48 AM 35.7944 -79.6583 257° West 369 425 18,200 2,150 Climbing Atlanta Center
Tue 11:00:48 AM 35.7700 -79.7953 258° West 384 442 20,500 2,100 Climbing Atlanta Center
Tue 11:01:48 AM 35.7475 -79.9269 258° West 397 457 22,400 1,250 Climbing Atlanta Center
Tue 11:02:48 AM 35.7250 -80.0661 259° West 407 468 23,000 850 Climbing Atlanta Center
Tue 11:03:48 AM 35.7517 -80.1903 285° West 413 475 24,100 1,150 Climbing Atlanta Center
Tue 11:04:48 AM 35.8067 -80.3439 294° West 424 488 25,300 950 Climbing Atlanta Center
Tue 11:05:48 AM 35.8586 -80.4850 294° West 442 509 26,000 1,000 Climbing Atlanta Center
Tue 11:06:48 AM 35.9086 -80.6214 294° West 447 514 27,300 1,300 Climbing Atlanta Center
Tue 11:07:48 AM 35.9603 -80.7653 294° West 454 522 28,600 1,250 Climbing Atlanta Center
Tue 11:08:48 AM 36.0142 -80.9119 294° West 454 522 29,800 1,200 Climbing Atlanta Center
Tue 11:09:48 AM 36.0658 -81.0564 294° West 459 528 31,000 600 Climbing Atlanta Center
Tue 11:10:48 AM 36.1172 -81.2036 293° West 459 528 31,000  Level Atlanta Center
Tue 11:11:48 AM 36.1686 -81.3536 293° West 471 542 31,000  Level Atlanta Center
Tue 11:12:48 AM 36.2197 -81.5036 293° West 476 548 31,000 341 Level Atlanta Center
Tue 11:14:44 AM 36.3192 -81.7861 294° West 469 540 32,000 337 Climbing Indianapolis Center
Tue 11:15:46 AM 36.3708 -81.9339 294° West 468 539 32,000  Level Indianapolis Center
Tue 11:16:48 AM 36.4217 -82.0839 293° West 471 542 32,000  Level Indianapolis Center
Tue 11:17:50 AM 36.5092 -82.1967 314° West 463 533 32,000  Level Indianapolis Center
Tue 11:18:51 AM 36.6100 -82.2936 322° Northwest 459 528 32,000  Level Indianapolis Center
Tue 11:19:53 AM 36.7106 -82.3903 322° Northwest 457 526 32,000  Level Indianapolis Center
Tue 11:20:55 AM 36.8283 -82.5028 323° Northwest 458 527 32,000  Level Indianapolis Center
Tue 11:21:57 AM 36.9289 -82.5986 323° Northwest 458 527 32,000  Level Indianapolis Center
Tue 11:22:59 AM 37.0292 -82.6933 323° Northwest 458 527 32,000  Level Indianapolis Center
Tue 11:24:01 AM 37.1281 -82.7914 322° Northwest 460 529 32,000  Level Indianapolis Center
Tue 11:25:02 AM 37.2442 -82.9050 322° Northwest 458 527 32,000  Level Indianapolis Center
Tue 11:26:04 AM 37.3433 -83.0028 322° Northwest 456 525 32,000  Level Indianapolis Center
Tue 11:27:06 AM 37.4431 -83.1006 322° Northwest 456 525 32,000  Level Indianapolis Center
Tue 11:28:08 AM 37.5425 -83.1992 322° Northwest 455 524 32,000  Level Indianapolis Center
Tue 11:29:10 AM 37.6422 -83.2972 322° Northwest 455 524 32,000  Level Indianapolis Center
Tue 11:30:12 AM 37.7581 -83.4122 322° Northwest 454 522 32,000  Level Indianapolis Center
Tue 11:31:14 AM 37.8575 -83.5103 322° Northwest 454 522 32,000  Level Indianapolis Center
Tue 11:32:16 AM 37.9561 -83.6089 322° Northwest 451 519 32,000  Level Indianapolis Center
Tue 11:33:17 AM 38.0558 -83.7075 322° Northwest 453 521 32,000  Level Indianapolis Center
Tue 11:34:19 AM 38.1533 -83.8069 321° Northwest 448 516 32,000  Level Indianapolis Center
Tue 11:35:21 AM 38.2519 -83.9058 322° Northwest 450 518 32,000  Level Indianapolis Center
Tue 11:36:23 AM 38.3669 -84.0225 322° Northwest 453 521 32,000  Level Indianapolis Center
Tue 11:37:25 AM 38.4653 -84.1228 321° Northwest 452 520 32,000  Level Indianapolis Center
Tue 11:38:27 AM 38.5639 -84.2231 322° Northwest 453 521 32,000 -48 Level Indianapolis Center
Tue 11:39:29 AM 38.6569 -84.3192 321° Northwest 456 525 31,900 -48 Descending Indianapolis Center
Tue 11:40:31 AM 38.7656 -84.4453 318° Northwest 451 519 31,900 48 Level Indianapolis Center
Tue 11:41:33 AM 38.8539 -84.5467 318° Northwest 451 519 32,000 -484 Climbing Indianapolis Center
Tue 11:42:35 AM 38.9539 -84.6636 318° Northwest 453 521 30,900 -968 Descending Indianapolis Center
Tue 11:43:37 AM 39.0497 -84.7747 318° Northwest 458 527 30,000 -919 Descending Indianapolis Center
Tue 11:44:39 AM 39.1544 -84.8961 318° Northwest 459 528 29,000 -968 Descending Indianapolis Center
Tue 11:45:41 AM 39.2489 -85.0089 317° Northwest 465 535 28,000 -484 Descending Indianapolis Center
Tue 11:46:43 AM 39.3450 -85.1169 319° Northwest 462 532 28,000  Level Indianapolis Center
Tue 11:47:45 AM 39.4600 -85.1814 337° Northwest 455 524 28,000  Level Indianapolis Center
Tue 11:48:47 AM 39.5778 -85.2369 340° North 453 521 28,000  Level Indianapolis Center
Tue 11:49:49 AM 39.6953 -85.2922 340° North 452 520 28,000 -290 Level Indianapolis Center
Tue 11:50:51 AM 39.8358 -85.3606 340° North 453 521 27,400 -823 Descending Indianapolis Center
Tue 11:51:53 AM 39.9517 -85.4167 340° North 449 517 26,300 -677 Descending Indianapolis Center
Tue 11:52:55 AM 40.0667 -85.4714 340° North 445 512 26,000 -145 Descending Indianapolis Center
Tue 11:53:57 AM 40.1811 -85.5272 340° North 443 510 26,000 -435 Level Indianapolis Center
Tue 11:54:59 AM 40.2936 -85.5817 340° North 437 503 25,100 -968 Descending Indianapolis Center
Tue 11:56:01 AM 40.4303 -85.6475 340° North 437 503 24,000 -581 Descending Indianapolis Center
Tue 11:57:03 AM 40.5419 -85.7003 340° North 431 496 23,900 -484 Descending Indianapolis Center
Tue 11:58:05 AM 40.6528 -85.7489 342° North 424 488 23,000 -435 Descending Indianapolis Center
Tue 11:59:07 AM 40.7631 -85.7983 341° North 421 484 23,000 -290 Level Indianapolis Center
Tue 12:00:09 PM 40.8747 -85.8492 341° North 425 489 22,400 -871 Descending Indianapolis Center
Tue 12:01:11 PM 41.0047 -85.9086 341° North 416 479 21,200 -1,065 Descending Indianapolis Center
Tue 12:02:13 PM 41.0889 -85.9981 321° Northwest 401 461 20,200 -581 Descending Indianapolis Center
Tue 12:03:15 PM 41.1539 -86.1106 308° West 388 447 20,000 -384 Descending Indianapolis Center
Tue 12:04:18 PM 41.2186 -86.2247 307° West 388 447 19,400 -1,056 Descending Indianapolis Center
Tue 12:05:20 PM 41.2831 -86.3358 308° West 383 441 17,800 -1,569 Descending Indianapolis Center
Tue 12:06:28 PM 41.3547 -86.4650 306° West 372 428 16,000 -1,569 Descending Chicago Center
Tue 12:07:30 PM 41.4153 -86.5703 308° West 360 414 14,400 -1,500 Descending Chicago Center
Tue 12:08:32 PM 41.4747 -86.6756 307° West 357 411 12,900 -1,171 Descending Chicago Center
Tue 12:09:33 PM 41.5447 -86.7761 313° West 357 411 12,000 -390 Descending Chicago Center
Tue 12:10:35 PM 41.6608 -86.7942 353° North 356 410 12,100 48 Climbing Chicago Center
Tue 12:11:37 PM 41.7600 -86.8081 354° North 360 414 12,100  Level Chicago Center
Tue 12:12:38 PM 41.8508 -86.8272 351° North 359 413 12,100 -341 Level Chicago Center
Tue 12:13:40 PM 41.9172 -86.9225 313° West 344 396 11,400 -629 Descending Chicago Center
Tue 12:14:42 PM 41.9517 -87.0264 294° West 325 374 10,800 -1,016 Descending Chicago Center
Tue 12:15:44 PM 41.9569 -87.1281 274° West 286 329 9,300 -1,024 Descending Chicago Center
Tue 12:16:45 PM 41.9650 -87.2431 275° West 266 306 8,700 -488 Descending Chicago Center
Tue 12:17:47 PM 41.9686 -87.3178 274° West 221 254 8,300 -387 Descending Chicago Center
Tue 12:18:49 PM 41.9689 -87.3797 270° West 175 201 7,900 -629 Descending Chicago Center
Tue 12:19:51 PM 41.9692 -87.4411 270° West 169 194 7,000 -968 Descending Chicago Center
Tue 12:20:53 PM 41.9683 -87.4997 269° West 161 185 5,900 -968 Descending Chicago Center
Tue 12:21:55 PM 41.9686 -87.5672 270° West 155 178 5,000 -871 Descending Chicago Center

Login

Don't have an account? Register now (free) for customized features, flight alerts, and more!